首页
METAR-TAF:

METAR-TAF

机场 :

穆尔塔拉·穆罕默德国际机场

拉哥斯, 尼日利亚

纬度: 06-35N, 经度: 003-20E, 海拔: 40米

当前天气观测

该预报发布于1小时和12分钟前的13:00 UTC
风速4节,风向
温度 31°C
湿度 79%
气压 1012 hPa
能見度: 8000
多云层高于1300英尺

METAR: DNMM 201300Z 18004KT 8000 BKN013 31/27 Q1012 NOSIG

时间: 15:12 (14:12 UTC)

预报

该预报发布于4小时和22分钟前的09:50 UTC
预报有效从20日的 12点(UTC)到 21日的 18点(UTC)
风速10节,风向
能見度: 8000
多云层高于1300英尺
少量云层高于2000英尺, 积雨云.
短暂存在
从 20日的 13点(UTC)到 20日的 16点(UTC)
散云层高于1300英尺
少量云层高于2000英尺, 积雨云.
雷暴
成为
从 20日的 17点(UTC)到 20日的 19点(UTC)
风速2节,风向多变
少量云层高于1100英尺
短暂存在
从 21日的 05点(UTC)到 21日的 08点(UTC)
能見度: 5000
轻雾
几率 30%
从 21日的 06点(UTC)到 21日的 08点(UTC)
能見度: 3000

TAF: DNMM 200950Z 2012/2118 17010KT 8000 BKN013 FEW020CB TEMPO 2013/2016 TS SCT013 FEW020CB BECMG 2017/2019 VRB02KT FEW011 TEMPO 2105/2108 5000 BR PROB30 2106/2108 3000 HZ

超过4000个机场的气象观测和天气预报(METAR&TAF报告)。

可查询的气象台以黄色和红色小点在地图上表示。

将鼠标移到小点上方,可查看气象台名称。

然后点击查看天气观测和预报。

如需切换地图:点击带黑十字的绿色按钮放大地图;点击带横线的绿色按钮缩小地图;或者点击绿色箭头查看邻近地区的地图。


METAR-TAF: